La Crosse, Virginia
Current Conditions -  °F | °C
As of 5:56 AM on Friday 28 Nov 2014 (Local Time) from KAVC Reporting Station
Clear Clear  
Wind Chill: 29°   Ceiling: Unl
Heat Index: 29°   Visibility: 10mi
Dew Point: 20°   Wind: 3mph
Humidity: 70%   Direction: 300°WNW
Pressure: 30.34"   Gusts: NA
Location:  36.7°N, 78.1°W
Report Text: KAVC 281056Z AUTO 30003KT 10SM CLR M02/M06 A3034 RMK AO2 T10161064
Loading
Personal Weather Stations






























Interactive Weather Map New forecast layout! Learn more

10-Day Weather Forecast

Advertisements
Track Severe Weather on mobile